createdAt,value
2019-04-25T03:00:55.052Z,983.72
2019-04-25T03:01:44.484Z,983.69
2019-04-25T03:02:41.925Z,983.65
2019-04-25T03:03:41.911Z,983.61
2019-04-25T03:04:44.228Z,983.63
2019-04-25T03:05:41.893Z,983.62
2019-04-25T03:06:41.961Z,983.62
2019-04-25T03:07:44.372Z,983.67
2019-04-25T03:08:41.875Z,983.65
2019-04-25T03:09:41.851Z,983.66
2019-04-25T03:10:43.848Z,983.74
2019-04-25T03:11:41.818Z,983.69
2019-04-25T03:12:41.818Z,983.74
2019-04-25T03:13:43.975Z,983.74
2019-04-25T03:14:41.790Z,983.75
2019-04-25T03:15:44.065Z,983.76
2019-04-25T03:16:41.768Z,983.77
2019-04-25T03:17:44.109Z,983.72
2019-04-25T03:18:41.745Z,983.73
2019-04-25T03:19:43.823Z,983.70
2019-04-25T03:20:41.732Z,983.66
2019-04-25T03:21:41.712Z,983.59
2019-04-25T03:22:44.239Z,983.56
2019-04-25T03:23:42.818Z,983.46
2019-04-25T03:24:41.679Z,983.44
2019-04-25T03:25:43.405Z,983.44
2019-04-25T03:26:41.659Z,983.42
2019-04-25T03:27:41.683Z,983.50
2019-04-25T03:28:41.649Z,983.48
2019-04-25T03:29:41.633Z,983.54
2019-04-25T03:30:41.640Z,983.60
2019-04-25T03:31:41.618Z,983.78
2019-04-25T03:32:41.600Z,983.80
2019-04-25T03:33:41.597Z,983.84
2019-04-25T03:34:41.576Z,983.85
2019-04-25T03:35:43.152Z,983.87
2019-04-25T03:36:41.553Z,983.85
2019-04-25T03:37:43.310Z,983.96
2019-04-25T03:38:41.542Z,983.96
2019-04-25T03:39:41.538Z,983.97
2019-04-25T03:40:41.513Z,983.96
2019-04-25T03:41:41.499Z,984.03
2019-04-25T03:42:41.488Z,983.94
2019-04-25T03:43:41.495Z,983.89
2019-04-25T03:44:41.479Z,983.86
2019-04-25T03:45:41.460Z,983.87
2019-04-25T03:46:41.448Z,983.98
2019-04-25T03:47:41.435Z,984.00
2019-04-25T03:48:41.438Z,984.09
2019-04-25T03:49:41.428Z,984.20
2019-04-25T03:50:41.404Z,984.26
2019-04-25T03:51:41.393Z,984.28
2019-04-25T03:52:41.382Z,984.26
2019-04-25T03:53:41.388Z,984.27
2019-04-25T03:54:41.360Z,984.30
2019-04-25T03:55:41.354Z,984.28
2019-04-25T03:56:51.942Z,984.27
2019-04-25T03:57:42.328Z,984.27
2019-04-25T03:58:41.327Z,984.27
2019-04-25T03:59:41.306Z,984.28
2019-04-25T04:00:41.297Z,984.31
2019-04-25T04:01:41.296Z,984.31
2019-04-25T04:02:41.280Z,984.35
2019-04-25T04:03:41.273Z,984.31
2019-04-25T04:04:41.257Z,984.27
2019-04-25T04:05:41.246Z,984.20
2019-04-25T04:06:41.254Z,984.18
2019-04-25T04:07:41.227Z,984.19
2019-04-25T04:08:41.220Z,984.18
2019-04-25T04:09:41.201Z,984.17
2019-04-25T04:10:41.189Z,984.23
2019-04-25T04:11:41.180Z,984.16
2019-04-25T04:12:41.173Z,984.15
2019-04-25T04:13:41.357Z,984.04
2019-04-25T04:14:41.151Z,984.02
2019-04-25T04:15:41.137Z,983.98
2019-04-25T04:16:41.127Z,983.99
2019-04-25T04:17:41.117Z,983.94
2019-04-25T04:18:41.110Z,983.96
2019-04-25T04:19:41.118Z,984.02
2019-04-25T04:20:41.084Z,984.03
2019-04-25T04:21:41.088Z,984.00
2019-04-25T04:22:41.074Z,983.99
2019-04-25T04:23:41.055Z,983.98
2019-04-25T04:24:41.050Z,983.96
2019-04-25T04:25:41.047Z,983.92
2019-04-25T04:26:41.019Z,983.92
2019-04-25T04:27:41.013Z,983.86
2019-04-25T04:28:40.999Z,983.80
2019-04-25T04:29:41.000Z,983.78
2019-04-25T04:30:40.987Z,983.75
2019-04-25T04:31:40.972Z,983.74
2019-04-25T04:32:40.955Z,983.73
2019-04-25T04:33:40.945Z,983.76
2019-04-25T04:34:40.943Z,983.71
2019-04-25T04:35:40.923Z,983.75
2019-04-25T04:36:40.914Z,983.65
2019-04-25T04:37:40.909Z,983.60
2019-04-25T04:38:40.983Z,983.57
2019-04-25T04:39:40.892Z,983.57
2019-04-25T04:40:40.869Z,983.53
2019-04-25T04:41:40.860Z,983.56
2019-04-25T04:42:40.849Z,983.51
2019-04-25T04:43:40.842Z,983.52
2019-04-25T04:44:40.846Z,983.42
2019-04-25T04:45:43.138Z,983.43
2019-04-25T04:46:40.805Z,983.40
2019-04-25T04:47:40.796Z,983.46
2019-04-25T04:48:40.783Z,983.53
2019-04-25T04:49:40.800Z,983.51
2019-04-25T04:50:40.763Z,983.60
2019-04-25T04:51:40.752Z,983.57
2019-04-25T04:52:40.758Z,983.62
2019-04-25T04:53:40.732Z,983.62
2019-04-25T04:54:40.732Z,983.63
2019-04-25T04:55:40.734Z,983.58
2019-04-25T04:56:40.703Z,983.51
2019-04-25T04:57:40.690Z,983.54
2019-04-25T04:58:40.681Z,983.51
2019-04-25T04:59:40.668Z,983.40
2019-04-25T05:00:40.668Z,983.35
2019-04-25T05:01:40.653Z,983.28
2019-04-25T05:02:40.635Z,983.27
2019-04-25T05:03:40.625Z,983.24
2019-04-25T05:04:40.615Z,983.26
2019-04-25T05:05:40.615Z,983.25
2019-04-25T05:06:40.594Z,983.30
2019-04-25T05:07:40.609Z,983.33
2019-04-25T05:08:40.574Z,983.36
2019-04-25T05:09:40.565Z,983.39
2019-04-25T05:10:40.569Z,983.39
2019-04-25T05:11:40.545Z,983.36
2019-04-25T05:12:40.538Z,983.40
2019-04-25T05:13:40.552Z,983.32
2019-04-25T05:14:40.516Z,983.39
2019-04-25T05:15:40.532Z,983.36
2019-04-25T05:16:40.489Z,983.40
2019-04-25T05:17:40.477Z,983.43
2019-04-25T05:18:40.465Z,983.36
2019-04-25T05:19:40.478Z,983.33
2019-04-25T05:20:40.458Z,983.29
2019-04-25T05:21:40.434Z,983.26
2019-04-25T05:22:40.438Z,983.26
2019-04-25T05:23:40.423Z,983.35
2019-04-25T05:24:40.421Z,983.41
2019-04-25T05:25:40.404Z,983.44
2019-04-25T05:26:40.394Z,983.43
2019-04-25T05:27:59.066Z,983.47
2019-04-25T05:28:41.360Z,983.45
2019-04-25T05:29:40.350Z,983.47
2019-04-25T05:30:40.354Z,983.55
2019-04-25T05:31:40.335Z,983.60
2019-04-25T05:32:40.414Z,983.54
2019-04-25T05:33:40.307Z,983.61
2019-04-25T05:34:40.296Z,983.59
2019-04-25T05:35:40.298Z,983.64
2019-04-25T05:36:40.277Z,983.69
2019-04-25T05:37:40.268Z,983.76
2019-04-25T05:38:40.269Z,983.68
2019-04-25T05:39:40.243Z,983.69
2019-04-25T05:40:40.265Z,983.67
2019-04-25T05:41:40.234Z,983.58
2019-04-25T05:42:40.225Z,983.63
2019-04-25T05:43:40.201Z,983.63
2019-04-25T05:44:40.229Z,983.63
2019-04-25T05:45:40.194Z,983.65
2019-04-25T05:46:40.170Z,983.66
2019-04-25T05:47:40.170Z,983.67
2019-04-25T05:48:40.163Z,983.67
2019-04-25T05:49:40.146Z,983.64
2019-04-25T05:50:40.141Z,983.61
2019-04-25T05:51:40.118Z,983.65
2019-04-25T05:52:40.108Z,983.62
2019-04-25T05:53:40.098Z,983.61
2019-04-25T05:54:40.091Z,983.63
2019-04-25T05:55:40.094Z,983.63
2019-04-25T05:56:40.073Z,983.64
2019-04-25T05:57:47.791Z,983.72
2019-04-25T05:58:41.041Z,983.72
2019-04-25T05:59:40.031Z,983.75
2019-04-25T06:00:40.021Z,983.76
2019-04-25T06:01:40.046Z,983.73
2019-04-25T06:02:40.000Z,983.70
2019-04-25T06:03:39.988Z,983.63
2019-04-25T06:04:39.990Z,983.67
2019-04-25T06:05:39.966Z,983.68
2019-04-25T06:06:39.968Z,983.64
2019-04-25T06:07:39.959Z,983.59
2019-04-25T06:08:39.936Z,983.54
2019-04-25T06:09:39.924Z,983.55
2019-04-25T06:10:39.914Z,983.52
2019-04-25T06:11:39.914Z,983.51
2019-04-25T06:12:39.899Z,983.56
2019-04-25T06:13:39.882Z,983.54
2019-04-25T06:14:39.870Z,983.51
2019-04-25T06:15:39.865Z,983.54
2019-04-25T06:16:39.862Z,983.50
2019-04-25T06:17:39.840Z,983.47
2019-04-25T06:18:39.834Z,983.47
2019-04-25T06:19:39.816Z,983.39
2019-04-25T06:20:39.807Z,983.44
2019-04-25T06:21:39.813Z,983.48
2019-04-25T06:22:39.784Z,983.42
2019-04-25T06:23:39.775Z,983.42
2019-04-25T06:24:39.782Z,983.47
2019-04-25T06:25:40.098Z,983.45
2019-04-25T06:26:40.118Z,983.51
2019-04-25T06:27:39.732Z,983.51
2019-04-25T06:28:49.153Z,983.53
2019-04-25T06:29:40.712Z,983.50
2019-04-25T06:30:39.704Z,983.47
2019-04-25T06:31:39.700Z,983.41
2019-04-25T06:32:39.678Z,983.43
2019-04-25T06:33:39.751Z,983.44
2019-04-25T06:34:39.657Z,983.40
2019-04-25T06:35:39.646Z,983.44
2019-04-25T06:36:39.670Z,983.49
2019-04-25T06:37:39.625Z,983.40
2019-04-25T06:38:39.615Z,983.39
2019-04-25T06:39:39.604Z,983.41
2019-04-25T06:40:39.594Z,983.40
2019-04-25T06:41:39.606Z,983.37
2019-04-25T06:42:39.581Z,983.44
2019-04-25T06:43:39.560Z,983.44
2019-04-25T06:44:39.552Z,983.42
2019-04-25T06:45:39.538Z,983.37
2019-04-25T06:46:39.528Z,983.35
2019-04-25T06:47:39.528Z,983.31
2019-04-25T06:48:39.529Z,983.29
2019-04-25T06:49:39.500Z,983.34
2019-04-25T06:50:39.489Z,983.26
2019-04-25T06:51:39.473Z,983.30
2019-04-25T06:52:39.479Z,983.23
2019-04-25T06:53:39.452Z,983.16
2019-04-25T06:54:39.455Z,983.10
2019-04-25T06:55:39.430Z,983.18
2019-04-25T06:56:39.428Z,983.06
2019-04-25T06:57:39.419Z,983.10
2019-04-25T06:58:39.397Z,983.04
2019-04-25T06:59:41.382Z,983.01
2019-04-25T07:00:42.574Z,983.03
2019-04-25T07:01:40.368Z,983.09
2019-04-25T07:02:39.366Z,983.08
2019-04-25T07:03:39.346Z,983.08
2019-04-25T07:04:39.336Z,983.09
2019-04-25T07:05:40.747Z,983.12
2019-04-25T07:06:39.334Z,983.12
2019-04-25T07:07:39.311Z,983.10
2019-04-25T07:08:39.291Z,983.18
2019-04-25T07:09:39.323Z,983.14
2019-04-25T07:10:39.268Z,983.02
2019-04-25T07:11:39.259Z,983.07
2019-04-25T07:12:39.285Z,982.96
2019-04-25T07:13:39.238Z,983.03
2019-04-25T07:14:39.237Z,983.17
2019-04-25T07:15:39.216Z,983.17
2019-04-25T07:16:39.204Z,983.26
2019-04-25T07:17:39.210Z,983.29
2019-04-25T07:18:39.184Z,983.43
2019-04-25T07:19:39.175Z,983.35
2019-04-25T07:20:39.162Z,983.28
2019-04-25T07:21:39.151Z,983.25
2019-04-25T07:22:39.151Z,983.20
2019-04-25T07:23:39.129Z,983.17
2019-04-25T07:24:39.125Z,983.11
2019-04-25T07:25:39.138Z,983.08
2019-04-25T07:26:39.760Z,983.08
2019-04-25T07:27:39.110Z,983.08
2019-04-25T07:28:39.078Z,983.07
2019-04-25T07:29:39.066Z,983.10
2019-04-25T07:30:49.934Z,983.09
2019-04-25T07:31:40.069Z,983.06
2019-04-25T07:32:39.034Z,983.07
2019-04-25T07:33:39.039Z,982.99
2019-04-25T07:34:39.015Z,982.95
2019-04-25T07:35:39.021Z,982.93
2019-04-25T07:36:39.005Z,982.98
2019-04-25T07:37:41.498Z,982.95
2019-04-25T07:38:38.983Z,982.99
2019-04-25T07:39:38.961Z,982.94
2019-04-25T07:40:38.957Z,982.93
2019-04-25T07:41:38.949Z,982.88
2019-04-25T07:42:38.962Z,982.99
2019-04-25T07:43:38.929Z,982.97
2019-04-25T07:44:49.882Z,983.01
2019-04-25T07:45:39.897Z,983.01
2019-04-25T07:46:39.936Z,982.97
2019-04-25T07:47:38.930Z,982.94
2019-04-25T07:48:38.903Z,982.82
2019-04-25T07:49:38.852Z,982.74
2019-04-25T07:50:38.841Z,982.81
2019-04-25T07:51:38.830Z,982.79
2019-04-25T07:52:38.817Z,982.89
2019-04-25T07:53:38.815Z,982.89
2019-04-25T07:54:38.821Z,982.89
2019-04-25T07:55:38.893Z,982.88
2019-04-25T07:56:38.773Z,982.87
2019-04-25T07:57:38.763Z,982.90
2019-04-25T07:58:49.619Z,982.90
2019-04-25T07:59:39.743Z,982.89
2019-04-25T08:00:38.765Z,982.80
2019-04-25T08:01:39.108Z,982.80
2019-04-25T08:02:39.529Z,982.82
2019-04-25T08:03:38.709Z,982.81
2019-04-25T08:04:38.690Z,982.95
2019-04-25T08:05:38.675Z,982.85
2019-04-25T08:06:38.719Z,982.82
2019-04-25T08:07:38.657Z,982.80
2019-04-25T08:08:38.665Z,982.74
2019-04-25T08:09:38.639Z,982.70
2019-04-25T08:10:38.620Z,982.70
2019-04-25T08:11:38.608Z,982.74
2019-04-25T08:12:39.419Z,982.70
2019-04-25T08:13:38.601Z,982.73
2019-04-25T08:14:38.594Z,982.78
2019-04-25T08:15:38.574Z,982.75
2019-04-25T08:16:39.294Z,982.69
2019-04-25T08:17:39.910Z,982.73
2019-04-25T08:18:38.971Z,982.77
2019-04-25T08:19:39.347Z,982.76
2019-04-25T08:20:38.512Z,982.72
2019-04-25T08:21:38.502Z,982.55
2019-04-25T08:22:53.601Z,982.50
2019-04-25T08:23:39.482Z,982.61
2019-04-25T08:24:39.101Z,982.56
2019-04-25T08:25:39.653Z,982.46
2019-04-25T08:26:39.338Z,982.44
2019-04-25T08:27:38.915Z,982.41
2019-04-25T08:28:50.151Z,982.34
2019-04-25T08:29:39.857Z,982.31
2019-04-25T08:30:38.434Z,982.27
2019-04-25T08:31:39.090Z,982.38
2019-04-25T08:32:38.384Z,982.38
2019-04-25T08:33:39.078Z,982.35
2019-04-25T08:34:38.630Z,982.37
2019-04-25T08:35:38.349Z,982.29
2019-04-25T08:36:38.886Z,982.19
2019-04-25T08:37:38.328Z,982.12
2019-04-25T08:38:38.314Z,982.19
2019-04-25T08:39:38.906Z,982.13
2019-04-25T08:40:39.006Z,982.10
2019-04-25T08:41:38.506Z,982.13
2019-04-25T08:42:38.341Z,982.13
2019-04-25T08:43:39.426Z,981.98
2019-04-25T08:44:39.174Z,982.23
2019-04-25T08:45:38.471Z,982.28
2019-04-25T08:46:39.369Z,982.18
2019-04-25T08:47:38.218Z,982.14
2019-04-25T08:48:38.256Z,981.92
2019-04-25T08:49:38.255Z,981.90
2019-04-25T08:50:40.163Z,982.04
2019-04-25T08:51:38.195Z,982.08
2019-04-25T08:52:38.170Z,981.99
2019-04-25T08:53:38.894Z,981.86
2019-04-25T08:54:41.482Z,981.76
2019-04-25T08:55:39.130Z,981.91
2019-04-25T08:56:38.121Z,982.10
2019-04-25T08:57:38.120Z,981.91
2019-04-25T08:58:39.083Z,981.83
2019-04-25T08:59:42.391Z,981.81
2019-04-25T09:00:39.123Z,981.81
2019-04-25T09:01:40.753Z,981.83
2019-04-25T09:02:38.916Z,981.81
2019-04-25T09:03:38.062Z,982.05
2019-04-25T09:04:38.097Z,982.01
2019-04-25T09:05:38.936Z,981.71
2019-04-25T09:06:38.601Z,981.61
2019-04-25T09:07:39.023Z,981.65
2019-04-25T09:08:38.557Z,981.66
2019-04-25T09:09:38.971Z,981.62
2019-04-25T09:10:38.948Z,981.69
2019-04-25T09:11:39.977Z,981.64
2019-04-25T09:12:37.976Z,981.85
2019-04-25T09:13:38.658Z,981.91
2019-04-25T09:14:38.971Z,981.82
2019-04-25T09:15:38.117Z,981.70
2019-04-25T09:16:37.939Z,981.80
2019-04-25T09:17:38.082Z,981.81
2019-04-25T09:18:38.196Z,981.79
2019-04-25T09:19:38.471Z,981.75
2019-04-25T09:20:39.571Z,981.56
2019-04-25T09:21:37.884Z,981.64
2019-04-25T09:22:38.651Z,981.63
2019-04-25T09:23:37.905Z,981.63
2019-04-25T09:24:38.950Z,981.70
2019-04-25T09:25:38.642Z,981.69
2019-04-25T09:26:38.323Z,981.69
2019-04-25T09:27:39.706Z,981.74
2019-04-25T09:28:39.482Z,981.92
2019-04-25T09:29:37.768Z,981.79
2019-04-25T09:30:38.399Z,981.54
2019-04-25T09:31:39.324Z,981.59
2019-04-25T09:32:37.735Z,981.67
2019-04-25T09:33:37.725Z,981.73
2019-04-25T09:34:38.126Z,981.72
2019-04-25T09:35:37.741Z,981.95
2019-04-25T09:36:37.743Z,981.84
2019-04-25T09:37:38.681Z,981.97
2019-04-25T09:38:37.673Z,982.02
2019-04-25T09:39:37.665Z,982.03
2019-04-25T09:40:37.665Z,981.65
2019-04-25T09:41:37.877Z,981.70
2019-04-25T09:42:37.654Z,981.95
2019-04-25T09:43:37.626Z,981.93
2019-04-25T09:44:38.406Z,981.93
2019-04-25T09:45:37.675Z,981.86
2019-04-25T09:46:37.591Z,981.79
2019-04-25T09:47:37.582Z,981.58
2019-04-25T09:48:37.598Z,981.59
2019-04-25T09:49:37.975Z,981.66
2019-04-25T09:50:38.654Z,981.86
2019-04-25T09:51:37.674Z,981.86
2019-04-25T09:52:37.783Z,981.85
2019-04-25T09:53:43.379Z,981.75
2019-04-25T09:54:38.519Z,981.37
2019-04-25T09:55:37.588Z,981.44
2019-04-25T09:56:38.286Z,981.39
2019-04-25T09:57:37.472Z,981.46
2019-04-25T09:58:37.974Z,981.61
2019-04-25T09:59:37.603Z,981.48
2019-04-25T10:00:38.212Z,981.52
2019-04-25T10:01:37.912Z,981.49
2019-04-25T10:02:38.206Z,981.46
2019-04-25T10:03:37.456Z,981.30
2019-04-25T10:04:37.935Z,981.32
2019-04-25T10:05:38.369Z,981.57
2019-04-25T10:06:37.384Z,981.58
2019-04-25T10:07:38.456Z,981.32
2019-04-25T10:08:37.367Z,981.38
2019-04-25T10:09:37.403Z,981.39
2019-04-25T10:10:38.769Z,981.35
2019-04-25T10:11:38.303Z,981.46
2019-04-25T10:12:37.408Z,981.30
2019-04-25T10:13:37.576Z,981.38
2019-04-25T10:14:37.636Z,981.20
2019-04-25T10:15:37.533Z,981.30
2019-04-25T10:16:37.948Z,981.15
2019-04-25T10:17:37.754Z,981.14
2019-04-25T10:18:37.927Z,981.31
2019-04-25T10:19:37.755Z,981.38
2019-04-25T10:20:37.656Z,981.26
2019-04-25T10:21:38.067Z,981.27
2019-04-25T10:22:37.958Z,981.26
2019-04-25T10:23:37.449Z,981.17
2019-04-25T10:24:37.392Z,981.02
2019-04-25T10:25:38.047Z,980.98
2019-04-25T10:26:37.665Z,981.05
2019-04-25T10:27:37.245Z,981.00
2019-04-25T10:28:37.158Z,980.99
2019-04-25T10:29:44.817Z,980.97
2019-04-25T10:30:39.414Z,980.76
2019-04-25T10:31:37.129Z,980.73
2019-04-25T10:32:37.109Z,980.82
2019-04-25T10:33:37.128Z,980.83
2019-04-25T10:34:37.096Z,980.82
2019-04-25T10:35:48.099Z,980.80
2019-04-25T10:36:39.877Z,980.86
2019-04-25T10:37:37.054Z,980.79
2019-04-25T10:38:37.099Z,980.89
2019-04-25T10:39:37.040Z,980.98
2019-04-25T10:40:37.027Z,980.71
2019-04-25T10:41:37.049Z,980.90
2019-04-25T10:42:37.031Z,980.76
2019-04-25T10:43:36.991Z,980.68
2019-04-25T10:44:36.984Z,980.78
2019-04-25T10:45:37.003Z,980.69
2019-04-25T10:46:36.981Z,980.71
2019-04-25T10:47:36.955Z,980.75
2019-04-25T10:48:36.942Z,980.74
2019-04-25T10:49:36.939Z,980.71
2019-04-25T10:50:36.946Z,980.76
2019-04-25T10:51:36.929Z,980.97
2019-04-25T10:52:36.900Z,980.90
2019-04-25T10:53:36.889Z,980.89
2019-04-25T10:54:36.887Z,980.68
2019-04-25T10:55:36.897Z,980.82
2019-04-25T10:56:36.867Z,980.82
2019-04-25T10:57:37.041Z,980.80
2019-04-25T10:58:36.861Z,980.80
2019-04-25T10:59:36.850Z,980.78
2019-04-25T11:00:36.834Z,980.85
2019-04-25T11:01:36.826Z,980.76
2019-04-25T11:02:36.807Z,980.73
2019-04-25T11:03:36.831Z,980.60
2019-04-25T11:04:36.838Z,980.79
2019-04-25T11:05:36.767Z,980.78
2019-04-25T11:06:36.762Z,980.78
2019-04-25T11:07:36.759Z,980.77
2019-04-25T11:08:36.753Z,980.79
2019-04-25T11:09:36.770Z,980.72
2019-04-25T11:10:36.729Z,980.71
2019-04-25T11:11:36.705Z,980.74
2019-04-25T11:12:36.713Z,980.75
2019-04-25T11:13:36.799Z,980.76
2019-04-25T11:14:36.697Z,980.76
2019-04-25T11:15:36.674Z,980.82
2019-04-25T11:16:36.666Z,980.78
2019-04-25T11:17:36.724Z,980.78
2019-04-25T11:18:36.739Z,980.73
2019-04-25T11:19:37.325Z,980.70
2019-04-25T11:20:36.624Z,980.70
2019-04-25T11:21:36.625Z,980.71
2019-04-25T11:22:36.614Z,980.68
2019-04-25T11:23:36.678Z,980.60
2019-04-25T11:24:36.617Z,980.68
2019-04-25T11:25:36.659Z,980.74
2019-04-25T11:26:36.626Z,980.75
2019-04-25T11:27:36.635Z,980.66
2019-04-25T11:28:36.640Z,980.68
2019-04-25T11:29:36.530Z,980.70
2019-04-25T11:30:36.548Z,980.71
2019-04-25T11:31:36.622Z,980.69
2019-04-25T11:32:36.513Z,980.70
2019-04-25T11:33:36.525Z,980.72
2019-04-25T11:34:36.615Z,980.65
2019-04-25T11:35:36.574Z,980.65
2019-04-25T11:36:36.562Z,980.69
2019-04-25T11:37:36.514Z,980.71
2019-04-25T11:38:36.435Z,980.81
2019-04-25T11:39:36.470Z,980.69
2019-04-25T11:40:36.425Z,980.68
2019-04-25T11:41:36.409Z,980.68
2019-04-25T11:42:36.423Z,980.73
2019-04-25T11:43:36.389Z,980.77
2019-04-25T11:44:36.384Z,980.72
2019-04-25T11:45:36.365Z,980.70
2019-04-25T11:46:39.191Z,980.75
2019-04-25T11:47:36.396Z,980.77
2019-04-25T11:48:36.364Z,980.65
2019-04-25T11:49:36.326Z,980.68
2019-04-25T11:50:37.083Z,980.58
2019-04-25T11:51:36.306Z,980.51
2019-04-25T11:52:36.321Z,980.50
2019-04-25T11:53:36.335Z,980.48
2019-04-25T11:54:36.278Z,980.47
2019-04-25T11:55:36.268Z,980.44
2019-04-25T11:56:36.281Z,980.46
2019-04-25T11:57:36.248Z,980.46
2019-04-25T11:58:36.253Z,980.41
2019-04-25T11:59:36.284Z,980.47
2019-04-25T12:00:36.226Z,980.48
2019-04-25T12:01:36.216Z,980.50
2019-04-25T12:02:36.204Z,980.45
2019-04-25T12:03:36.201Z,980.49
2019-04-25T12:04:36.180Z,980.45
2019-04-25T12:05:36.217Z,980.51
2019-04-25T12:06:36.159Z,980.51
2019-04-25T12:07:36.150Z,980.44
2019-04-25T12:08:36.159Z,980.42
2019-04-25T12:09:36.137Z,980.50
2019-04-25T12:10:36.157Z,980.49
2019-04-25T12:11:36.124Z,980.55
2019-04-25T12:12:37.331Z,980.50
2019-04-25T12:13:36.105Z,980.49
2019-04-25T12:14:36.086Z,980.58
2019-04-25T12:15:36.076Z,980.49
2019-04-25T12:16:36.097Z,980.51
2019-04-25T12:17:36.088Z,980.54
2019-04-25T12:18:36.053Z,980.52
2019-04-25T12:19:38.074Z,980.55
2019-04-25T12:20:36.023Z,980.46
2019-04-25T12:21:36.012Z,980.50
2019-04-25T12:22:36.078Z,980.52
2019-04-25T12:23:36.007Z,980.47
2019-04-25T12:24:36.003Z,980.48
2019-04-25T12:25:35.981Z,980.45
2019-04-25T12:26:35.968Z,980.53
2019-04-25T12:27:35.953Z,980.49
2019-04-25T12:28:36.003Z,980.43
2019-04-25T12:29:38.660Z,980.46
2019-04-25T12:30:40.058Z,980.41
2019-04-25T12:31:35.909Z,980.43
2019-04-25T12:32:35.899Z,980.39
2019-04-25T12:33:35.899Z,980.46
2019-04-25T12:34:35.926Z,980.38
2019-04-25T12:35:35.875Z,980.39
2019-04-25T12:36:35.860Z,980.36
2019-04-25T12:37:35.859Z,980.39
2019-04-25T12:38:35.853Z,980.37
2019-04-25T12:39:35.831Z,980.38
2019-04-25T12:40:35.894Z,980.47
2019-04-25T12:41:35.813Z,980.47
2019-04-25T12:42:35.802Z,980.46
2019-04-25T12:43:35.802Z,980.36
2019-04-25T12:44:35.786Z,980.40
2019-04-25T12:45:35.778Z,980.47
2019-04-25T12:46:35.796Z,980.41
2019-04-25T12:47:35.770Z,980.34
2019-04-25T12:48:35.755Z,980.38
2019-04-25T12:49:35.730Z,980.30
2019-04-25T12:50:35.740Z,980.39
2019-04-25T12:51:35.712Z,980.36
2019-04-25T12:52:35.735Z,980.29
2019-04-25T12:53:35.702Z,980.28
2019-04-25T12:54:35.692Z,980.20
2019-04-25T12:55:35.676Z,980.31
2019-04-25T12:56:35.662Z,980.39
2019-04-25T12:57:35.651Z,980.33
2019-04-25T12:58:35.706Z,980.30
2019-04-25T12:59:35.630Z,980.27
2019-04-25T13:00:47.555Z,980.28
2019-04-25T13:01:36.608Z,980.24
2019-04-25T13:02:36.529Z,980.23
2019-04-25T13:03:35.613Z,980.29
2019-04-25T13:04:35.610Z,980.30
2019-04-25T13:05:35.567Z,980.26
2019-04-25T13:06:35.562Z,980.32
2019-04-25T13:07:35.548Z,980.22
2019-04-25T13:08:35.559Z,980.18
2019-04-25T13:09:35.528Z,980.14
2019-04-25T13:10:35.534Z,980.13
2019-04-25T13:11:35.564Z,980.12
2019-04-25T13:12:35.506Z,980.11
2019-04-25T13:13:35.486Z,980.12
2019-04-25T13:14:35.493Z,980.15
2019-04-25T13:15:35.482Z,980.13
2019-04-25T13:16:35.467Z,980.09
2019-04-25T13:17:35.456Z,980.07
2019-04-25T13:18:35.447Z,980.08
2019-04-25T13:19:35.452Z,980.09
2019-04-25T13:20:35.413Z,980.09
2019-04-25T13:21:35.407Z,980.11
2019-04-25T13:22:35.397Z,980.05
2019-04-25T13:23:35.403Z,980.03
2019-04-25T13:24:35.381Z,980.00
2019-04-25T13:25:35.362Z,979.93
2019-04-25T13:26:35.410Z,979.94
2019-04-25T13:27:35.381Z,979.96
2019-04-25T13:28:35.329Z,979.85
2019-04-25T13:29:35.338Z,979.83
2019-04-25T13:30:35.309Z,979.78
2019-04-25T13:31:35.325Z,979.74
2019-04-25T13:32:35.289Z,979.65
2019-04-25T13:33:35.282Z,979.75
2019-04-25T13:34:36.627Z,979.66
2019-04-25T13:35:35.262Z,979.67
2019-04-25T13:36:35.253Z,979.56
2019-04-25T13:37:35.246Z,979.57
2019-04-25T13:38:35.227Z,979.56
2019-04-25T13:39:35.243Z,979.52
2019-04-25T13:40:35.212Z,979.49
2019-04-25T13:41:35.194Z,979.49
2019-04-25T13:42:35.192Z,979.45
2019-04-25T13:43:35.193Z,979.50
2019-04-25T13:44:35.174Z,979.46
2019-04-25T13:45:35.154Z,979.39
2019-04-25T13:46:35.160Z,979.46
2019-04-25T13:47:35.129Z,979.50
2019-04-25T13:48:35.667Z,979.48
2019-04-25T13:49:35.120Z,979.47
2019-04-25T13:50:35.098Z,979.51
2019-04-25T13:51:35.087Z,979.58
2019-04-25T13:52:36.186Z,979.58
2019-04-25T13:53:35.075Z,979.57
2019-04-25T13:54:35.119Z,979.55
2019-04-25T13:55:35.048Z,979.54
2019-04-25T13:56:40.305Z,979.49
2019-04-25T13:57:36.039Z,979.54
2019-04-25T13:58:35.014Z,979.55
2019-04-25T13:59:35.014Z,979.44
2019-04-25T14:00:35.054Z,979.45
2019-04-25T14:01:34.988Z,979.49
2019-04-25T14:02:34.978Z,979.44
2019-04-25T14:03:35.688Z,979.46
2019-04-25T14:04:35.762Z,979.48
2019-04-25T14:05:35.328Z,979.46
2019-04-25T14:06:34.978Z,979.54
2019-04-25T14:07:34.921Z,979.58
2019-04-25T14:08:34.909Z,979.59
2019-04-25T14:09:34.922Z,979.55
2019-04-25T14:10:34.901Z,979.53
2019-04-25T14:11:35.684Z,979.59
2019-04-25T14:12:34.879Z,979.57
2019-04-25T14:13:34.866Z,979.62
2019-04-25T14:14:36.067Z,979.57
2019-04-25T14:15:34.849Z,979.54
2019-04-25T14:16:34.983Z,979.56
2019-04-25T14:17:35.715Z,979.54
2019-04-25T14:18:34.834Z,979.51
2019-04-25T14:19:34.909Z,979.56
2019-04-25T14:20:34.796Z,979.54
2019-04-25T14:21:34.775Z,979.61
2019-04-25T14:22:34.770Z,979.63
2019-04-25T14:23:35.741Z,979.65
2019-04-25T14:24:35.918Z,979.66
2019-04-25T14:25:35.263Z,979.61
2019-04-25T14:26:34.721Z,979.65
2019-04-25T14:27:34.730Z,979.58
2019-04-25T14:28:35.494Z,979.54
2019-04-25T14:29:34.841Z,979.53
2019-04-25T14:30:35.962Z,979.57
2019-04-25T14:31:45.487Z,979.59
2019-04-25T14:32:36.515Z,979.64
2019-04-25T14:33:35.385Z,979.68
2019-04-25T14:34:34.682Z,979.69
2019-04-25T14:35:34.623Z,979.70
2019-04-25T14:36:34.644Z,979.76
2019-04-25T14:37:39.405Z,979.80
2019-04-25T14:38:35.604Z,979.83
2019-04-25T14:39:34.581Z,979.90
2019-04-25T14:40:34.599Z,979.87
2019-04-25T14:41:34.562Z,979.88
2019-04-25T14:42:34.569Z,979.79
2019-04-25T14:43:34.601Z,979.81
2019-04-25T14:44:34.532Z,979.85
2019-04-25T14:45:43.121Z,979.89
2019-04-25T14:46:35.775Z,979.90
2019-04-25T14:47:34.496Z,979.91
2019-04-25T14:48:34.511Z,979.92
2019-04-25T14:49:34.477Z,979.91
2019-04-25T14:50:34.478Z,979.86
2019-04-25T14:51:34.478Z,979.85
2019-04-25T14:52:35.537Z,979.81
2019-04-25T14:53:35.215Z,979.88
2019-04-25T14:54:36.043Z,979.86
2019-04-25T14:55:34.433Z,979.87
2019-04-25T14:56:34.402Z,979.94
2019-04-25T14:57:35.011Z,979.94
2019-04-25T14:58:34.380Z,979.89
2019-04-25T14:59:34.369Z,979.94
2019-04-25T15:00:34.413Z,979.92
2019-04-25T15:01:44.640Z,979.97
2019-04-25T15:02:36.346Z,979.99
2019-04-25T15:03:34.942Z,980.02
2019-04-25T15:04:35.127Z,979.95
2019-04-25T15:05:34.945Z,979.94
2019-04-25T15:06:34.304Z,979.87
2019-04-25T15:07:34.288Z,979.92
2019-04-25T15:08:34.273Z,979.89
2019-04-25T15:09:34.260Z,979.86
2019-04-25T15:10:34.261Z,979.88
2019-04-25T15:11:34.274Z,979.91
2019-04-25T15:12:34.255Z,979.92
2019-04-25T15:13:35.202Z,979.95
2019-04-25T15:14:34.215Z,980.01
2019-04-25T15:15:34.207Z,980.06
2019-04-25T15:16:34.186Z,980.03
2019-04-25T15:17:43.889Z,980.05
2019-04-25T15:18:46.080Z,980.00
2019-04-25T15:19:35.155Z,980.03
2019-04-25T15:20:34.422Z,979.98
2019-04-25T15:21:34.149Z,979.98
2019-04-25T15:22:34.693Z,980.04
2019-04-25T15:23:34.133Z,980.05
2019-04-25T15:24:34.856Z,980.02
2019-04-25T15:25:34.103Z,980.06
2019-04-25T15:26:34.089Z,979.93
2019-04-25T15:27:34.070Z,980.00
2019-04-25T15:28:34.058Z,980.06